Time;durP1;ratioP1;P1;durP2;ratioP2;P2;SDS_P1;SDS_P2;PMS_P1;PMS_P2;Temp;Humidity;BMP_temperature;BMP_pressure;BME280_temperature;BME280_humidity;BME280_pressure;Samples;Min_cycle;Max_cycle;Signal;HPM_P1;HPM_P2
2021/12/14 00:01:25;;;;;;;;;;;22.20;99.90;;;;;;5071819;28;19919;-74
2021/12/14 00:03:55;;;;;;;;;;;22.30;99.90;;;;;;5072042;28;20321;-73
2021/12/14 00:06:23;;;;;;;;;;;22.20;99.90;;;;;;5071788;28;19916;-74
2021/12/14 00:08:59;;;;;;;;;;;22.30;99.90;;;;;;5071123;28;19927;-73
2021/12/14 00:16:50;;;;;;;;;;;22.40;99.90;;;;;;5071723;28;19917;-73
2021/12/14 00:19:17;;;;;;;;;;;22.50;99.90;;;;;;5071983;28;19981;-72
2021/12/14 00:21:50;;;;;;;;;;;22.50;99.90;;;;;;5071353;28;19967;-72
2021/12/14 00:24:17;;;;;;;;;;;22.40;99.90;;;;;;5072225;28;20432;-73
2021/12/14 00:26:49;;;;;;;;;;;22.50;99.90;;;;;;5071322;28;20374;-73
2021/12/14 00:29:21;;;;;;;;;;;22.70;99.90;;;;;;5071100;28;19919;-72
2021/12/14 00:31:49;;;;;;;;;;;22.90;99.90;;;;;;5071480;28;19959;-73
2021/12/14 00:34:23;;;;;;;;;;;23.00;99.90;;;;;;5072003;28;20367;-72
2021/12/14 00:36:50;;;;;;;;;;;23.00;99.90;;;;;;5071461;28;19917;-72
2021/12/14 00:39:17;;;;;;;;;;;23.00;99.90;;;;;;5071888;28;19938;-72
2021/12/14 00:41:44;;;;;;;;;;;22.70;99.90;;;;;;5071147;28;19924;-72
2021/12/14 00:44:11;;;;;;;;;;;22.80;99.90;;;;;;5071804;28;19917;-73
2021/12/14 00:46:38;;;;;;;;;;;22.90;99.90;;;;;;5071501;28;19913;-72
2021/12/14 00:49:06;;;;;;;;;;;23.50;99.90;;;;;;5071646;28;20010;-74
2021/12/14 00:51:33;;;;;;;;;;;24.00;99.90;;;;;;5071195;28;19923;-73
2021/12/14 00:54:02;;;;;;;;;;;24.30;99.90;;;;;;5071425;28;20314;-74
2021/12/14 00:56:33;;;;;;;;;;;24.60;99.90;;;;;;5071267;28;19912;-74
2021/12/14 00:59:01;;;;;;;;;;;24.80;99.90;;;;;;5071351;28;19917;-74
2021/12/14 01:01:30;;;;;;;;;;;24.80;99.90;;;;;;5071138;28;19912;-73
2021/12/14 01:03:59;;;;;;;;;;;24.90;99.90;;;;;;5070572;28;19912;-74
2021/12/14 01:06:28;;;;;;;;;;;25.10;99.90;;;;;;5071298;28;19916;-74
2021/12/14 01:08:55;;;;;;;;;;;25.40;99.90;;;;;;5071201;28;19982;-73
2021/12/14 01:11:24;;;;;;;;;;;25.50;99.90;;;;;;5071393;28;20382;-74
2021/12/14 01:14:00;;;;;;;;;;;25.50;99.90;;;;;;5070862;28;19920;-74
2021/12/14 01:16:33;;;;;;;;;;;25.30;99.90;;;;;;5071656;28;19913;-75
2021/12/14 01:19:13;;;;;;;;;;;25.00;99.90;;;;;;5100102;28;19981;-74
2021/12/14 01:22:11;;;;;;;;;;;24.90;99.90;;;;;;5070740;28;20003;-75
2021/12/14 01:25:00;;;;;;;;;;;24.90;99.90;;;;;;5062970;28;20007;-75
2021/12/14 01:27:25;;;;;;;;;;;24.90;99.90;;;;;;5071027;28;19917;-76
2021/12/14 01:29:54;;;;;;;;;;;25.40;99.90;;;;;;5070760;28;19916;-75
2021/12/14 01:32:25;;;;;;;;;;;25.60;99.90;;;;;;5071030;28;19927;-72
2021/12/14 01:34:51;;;;;;;;;;;25.60;99.90;;;;;;5071360;28;19958;-73
2021/12/14 01:37:22;;;;;;;;;;;25.70;99.90;;;;;;5071026;28;19919;-73
2021/12/14 01:40:06;;;;;;;;;;;25.40;99.90;;;;;;5072241;28;20345;-72
2021/12/14 01:42:35;;;;;;;;;;;25.20;99.90;;;;;;5063347;28;19925;-75
2021/12/14 01:45:09;;;;;;;;;;;25.10;99.90;;;;;;5074252;28;20278;-75
2021/12/14 01:47:38;;;;;;;;;;;25.10;99.90;;;;;;5063410;28;19919;-76
2021/12/14 01:50:07;;;;;;;;;;;25.10;99.90;;;;;;5074229;28;19935;-76
2021/12/14 01:52:34;;;;;;;;;;;24.90;99.90;;;;;;5062848;28;19920;-76
2021/12/14 01:55:08;;;;;;;;;;;24.60;99.90;;;;;;5074293;28;19916;-73
2021/12/14 01:57:35;;;;;;;;;;;24.30;99.90;;;;;;5063080;28;19913;-75
2021/12/14 02:00:05;;;;;;;;;;;24.20;99.90;;;;;;5074036;28;19920;-73
2021/12/14 02:02:40;;;;;;;;;;;24.20;99.90;;;;;;5074074;28;19963;-74
2021/12/14 02:05:09;;;;;;;;;;;24.20;99.90;;;;;;5074046;28;20290;-73
2021/12/14 02:07:36;;;;;;;;;;;24.10;99.90;;;;;;5074204;28;20371;-73
2021/12/14 02:10:10;;;;;;;;;;;24.10;99.90;;;;;;5073917;28;19924;-73
2021/12/14 02:12:40;;;;;;;;;;;24.00;99.90;;;;;;5072208;28;20413;-72
2021/12/14 02:15:10;;;;;;;;;;;23.90;99.90;;;;;;5073858;28;19913;-73
2021/12/14 02:17:39;;;;;;;;;;;23.90;99.90;;;;;;5073509;28;19952;-73
2021/12/14 02:20:07;;;;;;;;;;;24.00;99.90;;;;;;5073519;28;20383;-73
2021/12/14 02:22:34;;;;;;;;;;;24.00;99.90;;;;;;5073750;28;19921;-74
2021/12/14 02:25:01;;;;;;;;;;;23.90;99.90;;;;;;5073987;28;19912;-73
2021/12/14 02:27:35;;;;;;;;;;;23.80;99.90;;;;;;5073324;28;20069;-73
2021/12/14 02:30:06;;;;;;;;;;;24.10;99.90;;;;;;5073860;28;19912;-73
2021/12/14 02:32:32;;;;;;;;;;;24.10;99.90;;;;;;5073657;28;19927;-72
2021/12/14 02:35:00;;;;;;;;;;;23.90;99.90;;;;;;5073894;28;19913;-73
2021/12/14 02:37:42;;;;;;;;;;;23.80;99.90;;;;;;5073298;28;20362;-73
2021/12/14 02:40:20;;;;;;;;;;;23.60;99.90;;;;;;5073392;28;19988;-72
2021/12/14 02:42:50;;;;;;;;;;;23.80;99.90;;;;;;5062479;28;19920;-73
2021/12/14 02:45:19;;;;;;;;;;;23.70;99.90;;;;;;5073291;28;20360;-73
2021/12/14 02:47:46;;;;;;;;;;;23.70;99.90;;;;;;5062003;28;19934;-74
2021/12/14 02:50:14;;;;;;;;;;;23.70;99.90;;;;;;5073331;28;19936;-74
2021/12/14 02:52:41;;;;;;;;;;;23.80;99.90;;;;;;5072277;28;19948;-73
2021/12/14 02:55:07;;;;;;;;;;;23.90;99.90;;;;;;5073662;28;20007;-72
2021/12/14 02:57:35;;;;;;;;;;;23.60;99.90;;;;;;5073325;28;19963;-73
2021/12/14 03:00:08;;;;;;;;;;;23.60;99.90;;;;;;5073443;28;19919;-72
2021/12/14 03:02:34;;;;;;;;;;;23.60;99.90;;;;;;5085645;28;20328;-74
2021/12/14 03:05:09;;;;;;;;;;;23.60;99.90;;;;;;5066309;28;19912;-74
2021/12/14 03:07:40;;;;;;;;;;;23.50;99.90;;;;;;5073260;28;20278;-75
2021/12/14 03:12:54;;;;;;;;;;;23.50;99.90;;;;;;5061299;28;19912;-74
2021/12/14 03:15:23;;;;;;;;;;;23.40;99.90;;;;;;5072817;28;19952;-74
2021/12/14 03:17:51;;;;;;;;;;;23.40;99.90;;;;;;5061099;28;19913;-74
2021/12/14 03:20:17;;;;;;;;;;;23.60;99.90;;;;;;5072576;28;20363;-74
2021/12/14 03:23:05;;;;;;;;;;;23.50;99.90;;;;;;5072312;28;19931;-73
2021/12/14 03:25:33;;;;;;;;;;;23.40;99.90;;;;;;5072479;28;19920;-72
2021/12/14 03:27:59;;;;;;;;;;;23.40;99.90;;;;;;5072869;28;19919;-73
2021/12/14 03:30:26;;;;;;;;;;;23.30;99.90;;;;;;5072631;28;19912;-74
2021/12/14 03:32:54;;;;;;;;;;;23.40;99.90;;;;;;5072670;28;19916;-73
2021/12/14 03:35:21;;;;;;;;;;;23.40;99.90;;;;;;5072317;28;19935;-73
2021/12/14 03:37:48;;;;;;;;;;;23.20;99.90;;;;;;5072295;28;19913;-73
2021/12/14 03:40:15;;;;;;;;;;;23.10;99.90;;;;;;5072930;28;20405;-73
2021/12/14 03:42:43;;;;;;;;;;;23.20;99.90;;;;;;5072309;28;19927;-73
2021/12/14 03:45:14;;;;;;;;;;;23.20;99.90;;;;;;5072866;28;20292;-74
2021/12/14 03:47:43;;;;;;;;;;;23.20;99.90;;;;;;5072224;28;19913;-73
2021/12/14 03:50:18;;;;;;;;;;;23.20;99.90;;;;;;5072256;28;19912;-73
2021/12/14 03:52:45;;;;;;;;;;;23.10;99.90;;;;;;5072406;28;19912;-72
2021/12/14 03:55:17;;;;;;;;;;;23.40;99.90;;;;;;5072625;28;19955;-74
2021/12/14 03:57:44;;;;;;;;;;;23.30;99.90;;;;;;5072203;28;20273;-73
2021/12/14 04:00:14;;;;;;;;;;;23.20;99.90;;;;;;5072313;28;20171;-74
2021/12/14 04:02:41;;;;;;;;;;;23.30;99.90;;;;;;5071477;28;19927;-74
2021/12/14 04:05:11;;;;;;;;;;;23.30;99.90;;;;;;5071731;28;19916;-73
2021/12/14 04:07:41;;;;;;;;;;;23.30;99.90;;;;;;5071721;28;20325;-72
2021/12/14 04:10:13;;;;;;;;;;;23.20;99.90;;;;;;5071527;28;19928;-73
2021/12/14 04:12:40;;;;;;;;;;;23.10;99.90;;;;;;5071272;28;19912;-73
2021/12/14 04:15:07;;;;;;;;;;;23.10;99.90;;;;;;5072091;28;19997;-74
2021/12/14 04:17:33;;;;;;;;;;;23.20;99.90;;;;;;5071700;28;19970;-73
2021/12/14 04:20:00;;;;;;;;;;;23.20;99.90;;;;;;5071689;28;19919;-72
2021/12/14 04:22:30;;;;;;;;;;;23.10;99.90;;;;;;5071430;28;19986;-73
2021/12/14 04:25:01;;;;;;;;;;;23.20;99.90;;;;;;5071945;28;19966;-73
2021/12/14 04:27:30;;;;;;;;;;;23.20;99.90;;;;;;5071508;28;19920;-73
2021/12/14 04:29:59;;;;;;;;;;;23.20;99.90;;;;;;5071803;28;19912;-73
2021/12/14 04:32:26;;;;;;;;;;;23.10;99.90;;;;;;5071394;28;19920;-73
2021/12/14 04:34:55;;;;;;;;;;;23.00;99.90;;;;;;5071841;28;20429;-73
2021/12/14 04:37:22;;;;;;;;;;;22.80;99.90;;;;;;5071512;28;19913;-73
2021/12/14 04:40:11;;;;;;;;;;;22.80;99.90;;;;;;5071839;28;19912;-73
2021/12/14 04:53:45;;;;;;;;;;;23.10;99.90;;;;;;5072045;28;19919;-72
2021/12/14 04:56:15;;;;;;;;;;;23.10;99.90;;;;;;5071025;28;19999;-72
2021/12/14 04:58:44;;;;;;;;;;;23.20;99.90;;;;;;5071708;28;19920;-72
2021/12/14 05:01:13;;;;;;;;;;;23.10;99.90;;;;;;5071183;28;19963;-72
2021/12/14 05:03:43;;;;;;;;;;;22.90;99.90;;;;;;5061533;28;20003;-73
2021/12/14 05:06:19;;;;;;;;;;;23.10;99.90;;;;;;5069929;28;19919;-73
2021/12/14 05:11:52;;;;;;;;;;;23.10;99.90;;;;;;5071572;28;19919;-72
2021/12/14 05:14:19;;;;;;;;;;;23.00;99.90;;;;;;5071738;28;20060;-73
2021/12/14 05:16:47;;;;;;;;;;;23.00;99.90;;;;;;5075474;28;19923;-74
2021/12/14 05:19:14;;;;;;;;;;;22.80;99.90;;;;;;5074728;28;20279;-73
2021/12/14 05:21:43;;;;;;;;;;;22.70;99.90;;;;;;5075306;28;19992;-73
2021/12/14 05:24:11;;;;;;;;;;;22.70;99.90;;;;;;5074643;28;19920;-73
2021/12/14 05:26:39;;;;;;;;;;;22.60;99.90;;;;;;5075462;28;19951;-73
2021/12/14 05:29:07;;;;;;;;;;;22.50;99.90;;;;;;5074803;28;20003;-73
2021/12/14 05:31:34;;;;;;;;;;;22.60;99.90;;;;;;5063249;28;20310;-73
2021/12/14 05:34:01;;;;;;;;;;;22.70;99.90;;;;;;5074474;28;19957;-73
2021/12/14 05:36:27;;;;;;;;;;;22.80;99.90;;;;;;5074994;28;19912;-72
2021/12/14 05:39:05;;;;;;;;;;;22.70;99.90;;;;;;5075025;28;20381;-72
2021/12/14 05:44:22;;;;;;;;;;;22.80;99.90;;;;;;5074443;28;20298;-73
2021/12/14 05:46:51;;;;;;;;;;;22.60;99.90;;;;;;5074892;28;19913;-72
2021/12/14 05:49:20;;;;;;;;;;;22.60;99.90;;;;;;5074120;28;19994;-72
2021/12/14 05:51:47;;;;;;;;;;;22.60;99.90;;;;;;5072540;28;20072;-73
2021/12/14 05:54:24;;;;;;;;;;;22.60;99.90;;;;;;5072027;28;19916;-74
2021/12/14 05:56:51;;;;;;;;;;;22.70;99.90;;;;;;5062374;28;19913;-73
2021/12/14 05:59:22;;;;;;;;;;;22.60;99.90;;;;;;5072130;28;20001;-72
2021/12/14 06:01:49;;;;;;;;;;;22.60;99.90;;;;;;5061473;28;19920;-72
2021/12/14 06:04:16;;;;;;;;;;;22.60;99.90;;;;;;5071586;28;20005;-73
2021/12/14 06:06:46;;;;;;;;;;;22.60;99.90;;;;;;5060558;28;19978;-73
2021/12/14 06:09:15;;;;;;;;;;;22.60;99.90;;;;;;5071937;28;20367;-73
2021/12/14 06:11:44;;;;;;;;;;;22.50;99.90;;;;;;5072124;28;19912;-73
2021/12/14 06:14:21;;;;;;;;;;;22.50;99.90;;;;;;5071674;28;19908;-73
2021/12/14 06:16:49;;;;;;;;;;;22.60;99.90;;;;;;5060438;28;20383;-74
2021/12/14 06:19:24;;;;;;;;;;;22.60;99.90;;;;;;5071463;28;20259;-73
2021/12/14 06:21:55;;;;;;;;;;;22.60;99.90;;;;;;5060632;28;19923;-73
2021/12/14 06:24:23;;;;;;;;;;;22.50;99.90;;;;;;5071683;28;20546;-73
2021/12/14 06:26:51;;;;;;;;;;;22.50;99.90;;;;;;5070687;28;20000;-72
2021/12/14 06:29:20;;;;;;;;;;;22.50;99.90;;;;;;5071606;28;19912;-74
2021/12/14 06:31:47;;;;;;;;;;;22.50;99.90;;;;;;5059714;28;20007;-74
2021/12/14 06:34:15;;;;;;;;;;;22.50;99.90;;;;;;5071542;28;19924;-72
2021/12/14 06:36:49;;;;;;;;;;;22.40;99.90;;;;;;5072089;28;19912;-73
2021/12/14 06:39:16;;;;;;;;;;;22.30;99.90;;;;;;5071429;28;19909;-71
2021/12/14 06:41:42;;;;;;;;;;;22.40;99.90;;;;;;5071913;28;19962;-72
2021/12/14 06:44:09;;;;;;;;;;;22.40;99.90;;;;;;5071191;28;19913;-73
2021/12/14 06:46:38;;;;;;;;;;;22.40;99.90;;;;;;5103800;28;20679;-72
2021/12/14 06:49:12;;;;;;;;;;;22.40;99.90;;;;;;5071558;28;20363;-73
2021/12/14 06:51:43;;;;;;;;;;;22.40;99.90;;;;;;5071116;28;19913;-73
2021/12/14 06:54:12;;;;;;;;;;;22.30;99.90;;;;;;5071543;28;20317;-72
2021/12/14 06:56:39;;;;;;;;;;;22.10;99.90;;;;;;5070900;28;20370;-72
2021/12/14 06:59:10;;;;;;;;;;;22.00;99.90;;;;;;5071499;28;19909;-73
2021/12/14 07:01:42;;;;;;;;;;;22.10;99.90;;;;;;5070575;28;19917;-73
2021/12/14 07:04:10;;;;;;;;;;;22.00;99.90;;;;;;5070939;28;19984;-73
2021/12/14 07:06:38;;;;;;;;;;;21.90;99.90;;;;;;5070823;28;19913;-71
2021/12/14 07:09:10;;;;;;;;;;;22.00;99.90;;;;;;5071134;28;19993;-72
2021/12/14 07:11:38;;;;;;;;;;;22.00;99.90;;;;;;5070413;28;19912;-73
2021/12/14 07:14:11;;;;;;;;;;;22.10;99.90;;;;;;5070943;28;19956;-73
2021/12/14 07:16:43;;;;;;;;;;;21.90;99.90;;;;;;5103175;28;19974;-73
2021/12/14 07:19:10;;;;;;;;;;;21.80;99.90;;;;;;5070989;28;20015;-73
2021/12/14 07:21:45;;;;;;;;;;;21.70;99.90;;;;;;5070548;28;19935;-74
2021/12/14 07:24:32;;;;;;;;;;;21.70;99.90;;;;;;5070737;28;20388;-72
2021/12/14 07:27:19;;;;;;;;;;;21.70;99.90;;;;;;5071100;28;19912;-75
2021/12/14 07:29:47;;;;;;;;;;;21.60;99.90;;;;;;5070494;28;20375;-73
2021/12/14 07:32:13;;;;;;;;;;;21.60;99.90;;;;;;5070840;28;19927;-73
2021/12/14 07:34:40;;;;;;;;;;;21.70;99.90;;;;;;5070105;28;20565;-73
2021/12/14 07:37:07;;;;;;;;;;;21.70;99.90;;;;;;5069923;28;19913;-74
2021/12/14 07:39:33;;;;;;;;;;;21.70;99.90;;;;;;5070287;28;19917;-74
2021/12/14 07:42:00;;;;;;;;;;;21.80;99.90;;;;;;5058903;28;19920;-73
2021/12/14 07:44:31;;;;;;;;;;;21.70;99.90;;;;;;5069891;28;19924;-73
2021/12/14 07:47:00;;;;;;;;;;;21.80;99.90;;;;;;5070420;28;20641;-74
2021/12/14 07:49:30;;;;;;;;;;;21.70;99.90;;;;;;5069674;28;20310;-74
2021/12/14 07:52:08;;;;;;;;;;;21.70;99.90;;;;;;5069608;28;19924;-74
2021/12/14 07:54:37;;;;;;;;;;;21.60;99.90;;;;;;5070078;28;19916;-74
2021/12/14 07:57:04;;;;;;;;;;;21.50;99.90;;;;;;5058902;28;19986;-73
2021/12/14 07:59:33;;;;;;;;;;;21.40;99.90;;;;;;5071590;28;19916;-74
2021/12/14 08:02:09;;;;;;;;;;;21.40;99.90;;;;;;5069601;28;19920;-74
2021/12/14 08:04:37;;;;;;;;;;;21.40;99.90;;;;;;5069365;28;19923;-74
2021/12/14 08:07:05;;;;;;;;;;;21.30;99.90;;;;;;5072347;28;19959;-74
2021/12/14 08:10:01;;;;;;;;;;;21.30;99.90;;;;;;5071740;28;20364;-74
2021/12/14 08:12:32;;;;;;;;;;;21.20;99.90;;;;;;5063601;28;19960;-75
2021/12/14 08:15:08;;;;;;;;;;;21.10;99.90;;;;;;5072085;28;19913;-74
2021/12/14 08:17:36;;;;;;;;;;;21.10;99.90;;;;;;5072059;28;19920;-74
2021/12/14 08:20:08;;;;;;;;;;;21.10;99.90;;;;;;5071173;28;19919;-73
2021/12/14 08:22:36;;;;;;;;;;;21.10;99.90;;;;;;5071921;28;19972;-73
2021/12/14 08:25:04;;;;;;;;;;;21.00;99.90;;;;;;5071688;28;19912;-74
2021/12/14 08:27:31;;;;;;;;;;;21.00;99.90;;;;;;5072082;28;19936;-74
2021/12/14 08:30:00;;;;;;;;;;;21.00;99.90;;;;;;5071468;28;19966;-75
2021/12/14 08:32:30;;;;;;;;;;;20.90;99.90;;;;;;5072077;28;19913;-74
2021/12/14 08:34:57;;;;;;;;;;;20.90;99.90;;;;;;5071348;28;19917;-75
2021/12/14 08:37:29;;;;;;;;;;;20.90;99.90;;;;;;5071789;28;19959;-74
2021/12/14 08:40:01;;;;;;;;;;;20.90;99.90;;;;;;5071302;28;19941;-75
2021/12/14 08:42:39;;;;;;;;;;;20.80;99.90;;;;;;5071713;28;20313;-74
2021/12/14 08:45:25;;;;;;;;;;;20.80;99.90;;;;;;5071572;28;19912;-73
2021/12/14 08:47:57;;;;;;;;;;;20.80;99.90;;;;;;5071197;28;19958;-74
2021/12/14 08:50:24;;;;;;;;;;;20.70;99.90;;;;;;5063679;28;19920;-74
2021/12/14 08:52:51;;;;;;;;;;;20.60;99.90;;;;;;5071441;28;19916;-75
2021/12/14 08:55:18;;;;;;;;;;;20.60;99.90;;;;;;5071755;28;19912;-74
2021/12/14 08:57:45;;;;;;;;;;;20.70;99.90;;;;;;5071319;28;19913;-75
2021/12/14 09:00:17;;;;;;;;;;;20.60;99.90;;;;;;5071123;28;19917;-74
2021/12/14 09:02:46;;;;;;;;;;;20.60;99.90;;;;;;5071513;28;19921;-75
2021/12/14 09:05:14;;;;;;;;;;;20.60;99.90;;;;;;5071029;28;19995;-75
2021/12/14 09:07:42;;;;;;;;;;;20.60;99.90;;;;;;5071429;28;19912;-75
2021/12/14 09:10:11;;;;;;;;;;;20.50;99.90;;;;;;5070912;28;20003;-75
2021/12/14 09:12:40;;;;;;;;;;;20.50;99.90;;;;;;5070836;28;19912;-75
2021/12/14 09:15:11;;;;;;;;;;;20.50;99.90;;;;;;5071234;28;19913;-75
2021/12/14 09:17:38;;;;;;;;;;;20.40;99.90;;;;;;5070044;28;19917;-74
2021/12/14 09:20:08;;;;;;;;;;;20.40;99.90;;;;;;5056909;28;19912;-75
2021/12/14 09:22:41;;;;;;;;;;;20.40;99.90;;;;;;5071246;28;19916;-75
2021/12/14 09:25:10;;;;;;;;;;;20.30;99.90;;;;;;5071036;28;20058;-75
2021/12/14 09:27:37;;;;;;;;;;;20.30;99.90;;;;;;5070791;28;19918;-75
2021/12/14 09:30:05;;;;;;;;;;;20.20;99.90;;;;;;5070616;28;20825;-73
2021/12/14 09:32:34;;;;;;;;;;;20.30;99.90;;;;;;5071275;28;19912;-74
2021/12/14 09:35:02;;;;;;;;;;;20.30;99.90;;;;;;5070732;28;19912;-75
2021/12/14 09:37:31;;;;;;;;;;;20.30;99.90;;;;;;5071241;28;19935;-75
2021/12/14 09:40:01;;;;;;;;;;;20.20;99.90;;;;;;5070781;28;19982;-76
2021/12/14 09:42:30;;;;;;;;;;;20.10;99.90;;;;;;5070570;28;20271;-75
2021/12/14 09:44:58;;;;;;;;;;;20.10;99.90;;;;;;5070598;28;19920;-75
2021/12/14 09:47:29;;;;;;;;;;;20.10;99.90;;;;;;5071301;28;20454;-76
2021/12/14 09:49:57;;;;;;;;;;;20.10;99.90;;;;;;5070764;28;20042;-74
2021/12/14 09:52:26;;;;;;;;;;;20.20;99.90;;;;;;5071090;28;19924;-74
2021/12/14 09:54:53;;;;;;;;;;;20.10;99.90;;;;;;5070612;28;19919;-75
2021/12/14 09:57:23;;;;;;;;;;;20.20;99.90;;;;;;5070549;28;20011;-75
2021/12/14 09:59:51;;;;;;;;;;;20.20;99.90;;;;;;5070385;28;19920;-75
2021/12/14 10:02:26;;;;;;;;;;;20.20;99.90;;;;;;5074488;28;20371;-75
2021/12/14 10:04:55;;;;;;;;;;;20.10;99.90;;;;;;5074024;28;19916;-74
2021/12/14 10:07:23;;;;;;;;;;;20.10;99.90;;;;;;5074975;28;19955;-74
2021/12/14 10:09:51;;;;;;;;;;;20.10;99.90;;;;;;5073864;28;20388;-75
2021/12/14 10:14:50;;;;;;;;;;;20.10;99.90;;;;;;5074139;28;19912;-75
2021/12/14 10:17:18;;;;;;;;;;;20.10;99.90;;;;;;5074517;28;19913;-75
2021/12/14 10:19:46;;;;;;;;;;;20.00;99.90;;;;;;5074180;28;20010;-75
2021/12/14 10:22:15;;;;;;;;;;;20.00;99.90;;;;;;5073914;28;19924;-75
2021/12/14 10:24:42;;;;;;;;;;;20.00;99.90;;;;;;5074312;28;20379;-75
2021/12/14 10:27:10;;;;;;;;;;;19.90;99.90;;;;;;5073841;28;19913;-74
2021/12/14 10:29:37;;;;;;;;;;;19.90;99.90;;;;;;5074070;28;19913;-75
2021/12/14 10:32:09;;;;;;;;;;;19.90;99.90;;;;;;5073434;28;19919;-76
2021/12/14 10:34:50;;;;;;;;;;;19.90;99.90;;;;;;5073959;28;19920;-76
2021/12/14 10:37:24;;;;;;;;;;;19.90;99.90;;;;;;5087513;28;19913;-74
2021/12/14 10:45:09;;;;;;;;;;;19.80;99.90;;;;;;5073777;28;19971;-75
2021/12/14 10:47:36;;;;;;;;;;;19.80;99.90;;;;;;5073767;28;19912;-75
2021/12/14 10:50:06;;;;;;;;;;;19.80;99.90;;;;;;5073010;28;19973;-76
2021/12/14 10:52:33;;;;;;;;;;;19.80;99.90;;;;;;5073559;28;20003;-74
2021/12/14 10:55:07;;;;;;;;;;;19.70;99.90;;;;;;5073290;28;19912;-75
2021/12/14 10:57:34;;;;;;;;;;;19.80;99.90;;;;;;5062531;28;20397;-75
2021/12/14 11:00:03;;;;;;;;;;;19.80;99.90;;;;;;5072956;28;19948;-75
2021/12/14 11:02:30;;;;;;;;;;;19.70;99.90;;;;;;5073350;28;19923;-75
2021/12/14 11:04:58;;;;;;;;;;;19.70;99.90;;;;;;5073117;28;19920;-75
2021/12/14 11:07:25;;;;;;;;;;;19.70;99.90;;;;;;5073464;28;19952;-76
2021/12/14 11:09:55;;;;;;;;;;;19.70;99.90;;;;;;5072955;28;19943;-75
2021/12/14 11:12:22;;;;;;;;;;;19.70;99.90;;;;;;5072250;28;19912;-75
2021/12/14 11:14:54;;;;;;;;;;;19.70;99.90;;;;;;5073189;28;19916;-75
2021/12/14 11:20:15;;;;;;;;;;;19.60;99.90;;;;;;5072575;28;19919;-75
2021/12/14 11:22:45;;;;;;;;;;;19.60;99.90;;;;;;5073303;28;19927;-75
2021/12/14 11:25:14;;;;;;;;;;;19.60;99.90;;;;;;5072594;28;20024;-75
2021/12/14 11:27:43;;;;;;;;;;;19.50;99.90;;;;;;5073247;28;19912;-74
2021/12/14 11:30:10;;;;;;;;;;;19.50;99.90;;;;;;5072111;28;20367;-75
2021/12/14 11:32:41;;;;;;;;;;;19.50;99.90;;;;;;5072795;28;19931;-75
2021/12/14 11:35:30;;;;;;;;;;;19.50;99.90;;;;;;5072403;28;19963;-76
2021/12/14 11:37:58;;;;;;;;;;;19.50;99.90;;;;;;5063653;28;20363;-75
2021/12/14 11:40:26;;;;;;;;;;;19.50;99.90;;;;;;5072150;28;19912;-76
2021/12/14 11:42:53;;;;;;;;;;;19.40;99.90;;;;;;5072719;28;20023;-75
2021/12/14 11:45:23;;;;;;;;;;;19.40;99.90;;;;;;5072157;28;20272;-76
2021/12/14 11:47:54;;;;;;;;;;;19.30;99.90;;;;;;5072235;28;19912;-75
2021/12/14 11:50:27;;;;;;;;;;;19.40;99.90;;;;;;5072161;28;19927;-76
2021/12/14 11:52:57;;;;;;;;;;;19.30;99.90;;;;;;5072309;28;20308;-75
2021/12/14 11:55:30;;;;;;;;;;;19.40;99.90;;;;;;5071963;28;19924;-75
2021/12/14 11:58:17;;;;;;;;;;;19.30;99.90;;;;;;5072234;28;19920;-76
2021/12/14 12:00:47;;;;;;;;;;;19.30;99.90;;;;;;5055898;28;19938;-76
2021/12/14 12:03:32;;;;;;;;;;;19.30;99.90;;;;;;5072351;28;19931;-76
2021/12/14 12:11:51;;;;;;;;;;;19.30;99.90;;;;;;5060136;28;20273;-75
2021/12/14 12:14:20;;;;;;;;;;;19.30;99.90;;;;;;5071832;28;19919;-76
2021/12/14 12:16:48;;;;;;;;;;;19.30;99.90;;;;;;5071726;28;19999;-74
2021/12/14 12:19:20;;;;;;;;;;;19.20;99.90;;;;;;5071495;28;19912;-76
2021/12/14 12:21:48;;;;;;;;;;;19.20;99.90;;;;;;5071706;28;20371;-74
2021/12/14 12:24:33;;;;;;;;;;;19.30;99.90;;;;;;5071876;28;20336;-74
2021/12/14 12:27:18;;;;;;;;;;;19.20;99.90;;;;;;5071600;28;19966;-75
2021/12/14 12:29:45;;;;;;;;;;;19.20;99.90;;;;;;5072248;28;19912;-75
2021/12/14 12:32:23;;;;;;;;;;;19.20;99.90;;;;;;5071614;28;19920;-75
2021/12/14 12:34:50;;;;;;;;;;;19.20;99.90;;;;;;5072088;28;20366;-75
2021/12/14 12:37:33;;;;;;;;;;;19.20;99.90;;;;;;5071727;28;19916;-75
2021/12/14 12:40:00;;;;;;;;;;;19.20;99.90;;;;;;5071825;28;19913;-76
2021/12/14 12:42:27;;;;;;;;;;;19.20;99.90;;;;;;5071353;28;19916;-74
2021/12/14 12:44:53;;;;;;;;;;;19.20;99.90;;;;;;5072034;28;19970;-76
2021/12/14 12:47:21;;;;;;;;;;;19.20;99.90;;;;;;5071233;28;20367;-75
2021/12/14 12:49:50;;;;;;;;;;;19.30;99.90;;;;;;5071809;28;19912;-75
2021/12/14 12:52:18;;;;;;;;;;;19.30;99.90;;;;;;5071506;28;19927;-75
2021/12/14 12:54:47;;;;;;;;;;;19.40;99.90;;;;;;5072009;28;19912;-75
2021/12/14 12:57:17;;;;;;;;;;;19.40;99.90;;;;;;5071402;28;19920;-75
2021/12/14 12:59:51;;;;;;;;;;;19.40;99.90;;;;;;5071830;28;19916;-75
2021/12/14 13:02:20;;;;;;;;;;;19.40;99.90;;;;;;5071278;28;19929;-75
2021/12/14 13:04:50;;;;;;;;;;;19.30;99.90;;;;;;5071887;28;20535;-76
2021/12/14 13:07:17;;;;;;;;;;;19.40;99.90;;;;;;5071351;28;21125;-75
2021/12/14 13:10:01;;;;;;;;;;;19.30;99.90;;;;;;5071620;28;19920;-76
2021/12/14 13:12:43;;;;;;;;;;;19.30;99.90;;;;;;5071258;28;19912;-75
2021/12/14 13:15:41;;;;;;;;;;;19.20;99.90;;;;;;5071758;28;19919;-75
2021/12/14 13:18:34;;;;;;;;;;;19.10;99.90;;;;;;5050798;28;20412;-76
2021/12/14 13:21:20;;;;;;;;;;;19.00;99.90;;;;;;5070161;28;20043;-75
2021/12/14 13:26:58;;;;;;;;;;;18.90;99.90;;;;;;5048971;28;20421;-74
2021/12/14 13:29:28;;;;;;;;;;;19.00;99.90;;;;;;5065778;28;20430;-76
2021/12/14 13:31:56;;;;;;;;;;;19.00;99.90;;;;;;5071172;28;19912;-75
2021/12/14 13:34:25;;;;;;;;;;;18.90;99.90;;;;;;5071364;28;19949;-76
2021/12/14 13:36:53;;;;;;;;;;;18.90;99.90;;;;;;5074615;28;19913;-76
2021/12/14 13:39:20;;;;;;;;;;;18.90;99.90;;;;;;5074747;28;19916;-73
2021/12/14 13:41:59;;;;;;;;;;;18.90;99.90;;;;;;5074839;28;20004;-74
2021/12/14 13:44:26;;;;;;;;;;;18.90;99.90;;;;;;5075060;28;19913;-73
2021/12/14 13:46:54;;;;;;;;;;;19.00;99.90;;;;;;5074961;28;20359;-75
2021/12/14 13:49:21;;;;;;;;;;;18.90;99.90;;;;;;5074507;28;19919;-74
2021/12/14 13:51:47;;;;;;;;;;;19.00;99.90;;;;;;5074844;28;19913;-72
2021/12/14 13:54:14;;;;;;;;;;;19.00;99.90;;;;;;5074423;28;19913;-75
2021/12/14 13:56:42;;;;;;;;;;;19.00;99.90;;;;;;5074885;28;19913;-74
2021/12/14 13:59:09;;;;;;;;;;;18.90;99.90;;;;;;5074432;28;20004;-75
2021/12/14 14:01:44;;;;;;;;;;;18.90;99.90;;;;;;5074773;28;19912;-75
2021/12/14 14:04:13;;;;;;;;;;;19.00;99.90;;;;;;5073957;28;19921;-76
2021/12/14 14:06:40;;;;;;;;;;;19.00;99.90;;;;;;5074838;28;19912;-76
2021/12/14 14:09:08;;;;;;;;;;;19.10;99.90;;;;;;5074078;28;20015;-75
2021/12/14 14:11:36;;;;;;;;;;;19.10;99.90;;;;;;5074749;28;19913;-74
2021/12/14 14:14:15;;;;;;;;;;;19.10;99.90;;;;;;5074105;28;20164;-74
2021/12/14 14:16:49;;;;;;;;;;;19.20;99.90;;;;;;5074522;28;19958;-75
2021/12/14 14:19:16;;;;;;;;;;;19.30;99.90;;;;;;5074012;28;19919;-74
2021/12/14 14:21:49;;;;;;;;;;;19.20;99.90;;;;;;5074369;28;20313;-75
2021/12/14 14:24:18;;;;;;;;;;;19.20;99.90;;;;;;5074058;28;19917;-76
2021/12/14 14:26:44;;;;;;;;;;;19.20;99.90;;;;;;5074239;28;20256;-74
2021/12/14 14:29:13;;;;;;;;;;;19.20;99.90;;;;;;5073808;28;19917;-73
2021/12/14 14:31:45;;;;;;;;;;;19.20;99.90;;;;;;5074126;28;19912;-73
2021/12/14 14:34:36;;;;;;;;;;;19.20;99.90;;;;;;5073867;28;20630;-75
2021/12/14 14:37:03;;;;;;;;;;;19.20;99.90;;;;;;5074375;28;20012;-73
2021/12/14 14:39:32;;;;;;;;;;;19.10;99.90;;;;;;5073638;28;19912;-73
2021/12/14 14:42:08;;;;;;;;;;;19.10;99.90;;;;;;5073876;28;19917;-73
2021/12/14 14:44:37;;;;;;;;;;;19.20;99.90;;;;;;5073865;28;20270;-72
2021/12/14 14:47:09;;;;;;;;;;;19.20;99.90;;;;;;5072612;28;19922;-73
2021/12/14 14:49:39;;;;;;;;;;;19.10;99.90;;;;;;5073592;28;19920;-73
2021/12/14 14:52:14;;;;;;;;;;;19.10;99.90;;;;;;5073845;28;20375;-73
2021/12/14 14:54:43;;;;;;;;;;;19.10;99.90;;;;;;5073830;28;19917;-74
2021/12/14 14:57:13;;;;;;;;;;;19.10;99.90;;;;;;5073914;28;19958;-73
2021/12/14 15:00:06;;;;;;;;;;;19.10;99.90;;;;;;5073746;28;19912;-73
2021/12/14 15:02:42;;;;;;;;;;;19.10;99.90;;;;;;5072759;28;20023;-74
2021/12/14 15:05:11;;;;;;;;;;;19.10;99.90;;;;;;5073809;28;19920;-73
2021/12/14 15:07:53;;;;;;;;;;;19.00;99.90;;;;;;5073065;28;19926;-73
2021/12/14 15:10:21;;;;;;;;;;;19.00;99.90;;;;;;5073672;28;19960;-74
2021/12/14 15:13:11;;;;;;;;;;;19.00;99.90;;;;;;5073020;28;20283;-73
2021/12/14 15:15:38;;;;;;;;;;;18.90;99.90;;;;;;5070292;28;19912;-73
2021/12/14 15:18:05;;;;;;;;;;;18.90;99.90;;;;;;5072809;28;20333;-72
2021/12/14 15:20:33;;;;;;;;;;;18.90;99.90;;;;;;5073435;28;19958;-73